KNKX/NKX METAR and TAF weather

Enter ICAO airport designator
Station Type Date Time Source
KNKX METAR 2020/09/20 00:55 UTC NOAA

KNKX 200055Z 28007KT 10SM CLR 24/18 A2982 RMK AO2 SLP092 T02390178 $


Station Type Date Time Source
KNKX Decoded METAR 2020/09/20 00:55 UTC NOAA

MCAS MIRAMAR, CA, United States (KNKX) 32-52N 117-09W 146M
Sep 19, 2020 - 08:55 PM EDT / 2020.09.20 0055 UTC
Wind: from the W (280 degrees) at 8 MPH (7 KT):0
Visibility: 10 mile(s):0
Sky conditions: clear
Temperature: 75.0 F (23.9 C)
Dew Point: 64.0 F (17.8 C)
Relative Humidity: 68%
Pressure (altimeter): 29.82 in. Hg (1009 hPa)
ob: KNKX 200055Z 28007KT 10SM CLR 24/18 A2982 RMK AO2 SLP092 T02390178
cycle: 1

Station Type Date Time Source
KNKX TAF 2020/09/19 21:06 UTC NOAA

TAF KNKX 1921/2021 30009KT 9999 FEW200 QNH2983INS
FM200130 VRB05KT 9999 FEW200 QNH2986INS
BECMG 2006/2008 VRB05KT BKN008 9999 QNH2987INS T31/1921Z T18/2009Z

Example: see airport list